Brighton, MI (48114)

6:12 PM EST on February 12, 2016 (GMT -0500)
Fonda Lake | | Change Station
CLOSE
Current Station
Personal Weather Station
Location: Brighton, MI
Elevation: 897 ft
Nearby Weather Stations

Elev 897 ft 42.51 °N, 83.75 °W | Updated 1 minute ago

Partly Cloudy
Partly Cloudy
16.6 °F
Feels Like 3 °F
N
13.4
Wind Variable Wind from NW
Gusts 17.8 mph

Today
High -- | Low -- °F
--% Chance of Precip.
Yesterday
High -- | Low -- °F
Precip. -- in
Pressure 30.00 in
Visibility 1.2 miles
Clouds Scattered Clouds 900 ft
Scattered Clouds 2200 ft
Mostly Cloudy 3100 ft
Windchill 3 °F
Dew Point 5 °F
Humidity 58%
Rainfall 0.00 in
Snow Depth Not available.
7:36 AM 6:02 PM
Waxing Crescent, 24% visible
METAR KOZW 122255Z AUTO 32014G25KT 1 1/4SM -SN SCT009 SCT022 BKN031 M08/M14 A3000 RMK AO2 VIS 1/4V5 T10851138
Pressure 30.00 in
Visibility 1.2 miles
Clouds Scattered Clouds 900 ft
Scattered Clouds 2200 ft
Mostly Cloudy 3100 ft
Windchill 3 °F
Dew Point 5 °F
Humidity 58%
Rainfall 0.00 in
Snow Depth Not available.
7:36 AM 6:02 PM
Waxing Crescent, 24% visible
METAR KOZW 122255Z AUTO 32014G25KT 1 1/4SM -SN SCT009 SCT022 BKN031 M08/M14 A3000 RMK AO2 VIS 1/4V5 T10851138

10-Day Weather Forecast

Almanac

Astronomy

Feb. 12, 2016 Rise Set
Actual Time
Civil Twilight
Nautical Twilight
Astronomical Twilight
Moon
Length of Visible Light
Length of Day
Tomorrow will be .
, % of the Moon is Illuminated

Today's Extremes

State Highs State Lows

Community

WunderPhotos

Upload Photos

1,892,431 photos uploaded!

WunderBlog® & News

Nearby

Air Quality

  Air Quality AQ Index Pollutant
Not available.

Snow Depth

Station Depth Elevation

Earthquake Activity

City Distance Mag. Time & Date
Minimum magnitude displayed is 2.5.

Coastal Water Temperatures

Place Temperature

Stations

Nearby Weather Stations

Station Location Temp. Windchill Dew Point Humidity Wind Precip. Elev Updated Type
                   

Watches & Warnings

There are currently no watches in effect.